Terminal Aerodrome Forecast
Issued by NWS

Home | Current Version | Previous Version | Text Only | Print | Product List | Glossary Off
Versions: 1 2 3 4 5 6 7 8 9 10 11 12 13 14 15 16 17 18 19

817
FTUS43 KLSX 121130
TAFCPS
TAF
KCPS 121130Z 1212/1312 VRB04KT P6SM OVC035
     FM121600 31007KT P6SM BKN030
     FM121900 31014G22KT P6SM BKN035
     FM122200 32012G22KT P6SM SCT035
     FM130800 34008KT P6SM SCT150=

USA.gov is the U.S. government's official web portal to all federal, state and local government web resources and services.